sensor_id;sensor_type;location;lat;lon;timestamp;temperature;humidity
27848;DHT22;15212;48.830;8.730;2022-12-07T00:01:59;2.40;99.90
27848;DHT22;15212;48.830;8.730;2022-12-07T00:04:27;2.40;99.90
27848;DHT22;15212;48.830;8.730;2022-12-07T00:06:55;2.40;99.90
27848;DHT22;15212;48.830;8.730;2022-12-07T00:09:24;2.30;99.90
27848;DHT22;15212;48.830;8.730;2022-12-07T00:11:52;2.40;99.90
27848;DHT22;15212;48.830;8.730;2022-12-07T00:14:21;2.30;99.90
27848;DHT22;15212;48.830;8.730;2022-12-07T00:16:50;2.30;99.90
27848;DHT22;15212;48.830;8.730;2022-12-07T00:19:19;2.40;99.90
27848;DHT22;15212;48.830;8.730;2022-12-07T00:21:48;2.40;99.90
27848;DHT22;15212;48.830;8.730;2022-12-07T00:24:16;2.40;99.90
27848;DHT22;15212;48.830;8.730;2022-12-07T00:26:45;2.40;99.90
27848;DHT22;15212;48.830;8.730;2022-12-07T00:29:18;2.40;99.90
27848;DHT22;15212;48.830;8.730;2022-12-07T00:31:50;2.40;99.90
27848;DHT22;15212;48.830;8.730;2022-12-07T00:34:20;2.40;99.90
27848;DHT22;15212;48.830;8.730;2022-12-07T00:36:49;2.50;99.90
27848;DHT22;15212;48.830;8.730;2022-12-07T00:39:18;2.40;99.90
27848;DHT22;15212;48.830;8.730;2022-12-07T00:41:46;2.50;99.90
27848;DHT22;15212;48.830;8.730;2022-12-07T00:44:15;2.50;99.90
27848;DHT22;15212;48.830;8.730;2022-12-07T00:46:43;2.50;99.90
27848;DHT22;15212;48.830;8.730;2022-12-07T00:49:12;2.50;99.90
27848;DHT22;15212;48.830;8.730;2022-12-07T00:51:40;2.50;99.90
27848;DHT22;15212;48.830;8.730;2022-12-07T00:54:09;2.50;99.90
27848;DHT22;15212;48.830;8.730;2022-12-07T00:56:37;2.50;99.90
27848;DHT22;15212;48.830;8.730;2022-12-07T00:59:06;2.40;99.90
27848;DHT22;15212;48.830;8.730;2022-12-07T01:01:35;2.40;99.90
27848;DHT22;15212;48.830;8.730;2022-12-07T01:04:04;2.40;99.90
27848;DHT22;15212;48.830;8.730;2022-12-07T01:06:33;2.40;99.90
27848;DHT22;15212;48.830;8.730;2022-12-07T01:09:03;2.40;99.90
27848;DHT22;15212;48.830;8.730;2022-12-07T01:11:32;2.40;99.90
27848;DHT22;15212;48.830;8.730;2022-12-07T01:14:01;2.40;99.90
27848;DHT22;15212;48.830;8.730;2022-12-07T01:16:31;2.40;99.90
27848;DHT22;15212;48.830;8.730;2022-12-07T01:19:01;2.40;99.90
27848;DHT22;15212;48.830;8.730;2022-12-07T01:21:33;2.40;99.90
27848;DHT22;15212;48.830;8.730;2022-12-07T01:24:05;2.40;99.90
27848;DHT22;15212;48.830;8.730;2022-12-07T01:26:35;2.40;99.90
27848;DHT22;15212;48.830;8.730;2022-12-07T01:29:03;2.30;99.90
27848;DHT22;15212;48.830;8.730;2022-12-07T01:31:32;2.30;99.90
27848;DHT22;15212;48.830;8.730;2022-12-07T01:34:00;2.30;99.90
27848;DHT22;15212;48.830;8.730;2022-12-07T01:36:34;2.30;99.90
27848;DHT22;15212;48.830;8.730;2022-12-07T01:39:05;2.30;99.90
27848;DHT22;15212;48.830;8.730;2022-12-07T01:41:37;2.30;99.90
27848;DHT22;15212;48.830;8.730;2022-12-07T01:44:26;2.30;99.90
27848;DHT22;15212;48.830;8.730;2022-12-07T01:47:00;2.30;99.90
27848;DHT22;15212;48.830;8.730;2022-12-07T01:52:10;2.30;99.90
27848;DHT22;15212;48.830;8.730;2022-12-07T01:54:39;2.30;99.90
27848;DHT22;15212;48.830;8.730;2022-12-07T01:57:09;2.30;99.90
27848;DHT22;15212;48.830;8.730;2022-12-07T01:59:38;2.30;99.90
27848;DHT22;15212;48.830;8.730;2022-12-07T02:02:10;2.20;99.90
27848;DHT22;15212;48.830;8.730;2022-12-07T02:04:39;2.20;99.90
27848;DHT22;15212;48.830;8.730;2022-12-07T02:07:08;2.20;99.90
27848;DHT22;15212;48.830;8.730;2022-12-07T02:09:36;2.20;99.90
27848;DHT22;15212;48.830;8.730;2022-12-07T02:12:06;2.20;99.90
27848;DHT22;15212;48.830;8.730;2022-12-07T02:14:35;2.20;99.90
27848;DHT22;15212;48.830;8.730;2022-12-07T02:17:07;2.20;99.90
27848;DHT22;15212;48.830;8.730;2022-12-07T02:19:53;2.20;99.90
27848;DHT22;15212;48.830;8.730;2022-12-07T02:22:51;2.20;99.90
27848;DHT22;15212;48.830;8.730;2022-12-07T02:25:41;2.20;99.90
27848;DHT22;15212;48.830;8.730;2022-12-07T02:28:34;2.20;99.90
27848;DHT22;15212;48.830;8.730;2022-12-07T02:31:10;2.20;99.90
27848;DHT22;15212;48.830;8.730;2022-12-07T02:33:54;2.20;99.90
27848;DHT22;15212;48.830;8.730;2022-12-07T02:36:32;2.20;99.90
27848;DHT22;15212;48.830;8.730;2022-12-07T02:39:19;2.20;99.90
27848;DHT22;15212;48.830;8.730;2022-12-07T02:41:55;2.20;99.90
27848;DHT22;15212;48.830;8.730;2022-12-07T02:44:28;2.10;99.90
27848;DHT22;15212;48.830;8.730;2022-12-07T02:47:09;2.10;99.90
27848;DHT22;15212;48.830;8.730;2022-12-07T02:49:34;2.10;99.90
27848;DHT22;15212;48.830;8.730;2022-12-07T02:52:05;2.10;99.90
27848;DHT22;15212;48.830;8.730;2022-12-07T02:54:33;2.10;99.90
27848;DHT22;15212;48.830;8.730;2022-12-07T02:57:31;2.10;99.90
27848;DHT22;15212;48.830;8.730;2022-12-07T03:00:07;2.10;99.90
27848;DHT22;15212;48.830;8.730;2022-12-07T03:11:45;2.10;99.90
27848;DHT22;15212;48.830;8.730;2022-12-07T03:14:18;2.10;99.90
27848;DHT22;15212;48.830;8.730;2022-12-07T03:17:02;2.10;99.90
27848;DHT22;15212;48.830;8.730;2022-12-07T03:19:34;2.10;99.90
27848;DHT22;15212;48.830;8.730;2022-12-07T03:22:08;2.10;99.90
27848;DHT22;15212;48.830;8.730;2022-12-07T03:24:42;2.10;99.90
27848;DHT22;15212;48.830;8.730;2022-12-07T03:27:34;2.10;99.90
27848;DHT22;15212;48.830;8.730;2022-12-07T03:30:13;2.10;99.90
27848;DHT22;15212;48.830;8.730;2022-12-07T03:32:51;2.00;99.90
27848;DHT22;15212;48.830;8.730;2022-12-07T03:35:32;2.00;99.90
27848;DHT22;15212;48.830;8.730;2022-12-07T03:41:05;2.00;99.90
27848;DHT22;15212;48.830;8.730;2022-12-07T03:43:37;2.10;99.90
27848;DHT22;15212;48.830;8.730;2022-12-07T03:47:04;2.00;99.90
27848;DHT22;15212;48.830;8.730;2022-12-07T03:49:11;2.10;99.90
27848;DHT22;15212;48.830;8.730;2022-12-07T03:52:00;2.10;99.90
27848;DHT22;15212;48.830;8.730;2022-12-07T03:54:42;2.00;99.90
27848;DHT22;15212;48.830;8.730;2022-12-07T03:57:16;2.00;99.90
27848;DHT22;15212;48.830;8.730;2022-12-07T03:59:45;2.00;99.90
27848;DHT22;15212;48.830;8.730;2022-12-07T04:02:15;2.00;99.90
27848;DHT22;15212;48.830;8.730;2022-12-07T04:04:43;2.00;99.90
27848;DHT22;15212;48.830;8.730;2022-12-07T04:07:12;2.00;99.90
27848;DHT22;15212;48.830;8.730;2022-12-07T04:09:40;1.90;99.90
27848;DHT22;15212;48.830;8.730;2022-12-07T04:12:09;1.90;99.90
27848;DHT22;15212;48.830;8.730;2022-12-07T04:14:37;1.90;99.90
27848;DHT22;15212;48.830;8.730;2022-12-07T04:17:05;1.90;99.90
27848;DHT22;15212;48.830;8.730;2022-12-07T04:19:34;1.90;99.90
27848;DHT22;15212;48.830;8.730;2022-12-07T04:22:04;1.90;99.90
27848;DHT22;15212;48.830;8.730;2022-12-07T04:24:33;1.90;99.90
27848;DHT22;15212;48.830;8.730;2022-12-07T04:27:02;1.80;99.90
27848;DHT22;15212;48.830;8.730;2022-12-07T04:29:31;1.80;99.90
27848;DHT22;15212;48.830;8.730;2022-12-07T04:31:59;1.80;99.90
27848;DHT22;15212;48.830;8.730;2022-12-07T04:34:28;1.70;99.90
27848;DHT22;15212;48.830;8.730;2022-12-07T04:36:56;1.70;99.90
27848;DHT22;15212;48.830;8.730;2022-12-07T04:39:29;1.70;99.90
27848;DHT22;15212;48.830;8.730;2022-12-07T04:41:59;1.70;99.90
27848;DHT22;15212;48.830;8.730;2022-12-07T04:44:29;1.60;99.90
27848;DHT22;15212;48.830;8.730;2022-12-07T04:46:58;1.60;99.90
27848;DHT22;15212;48.830;8.730;2022-12-07T04:49:26;1.50;99.90
27848;DHT22;15212;48.830;8.730;2022-12-07T04:51:55;1.50;99.90
27848;DHT22;15212;48.830;8.730;2022-12-07T04:54:23;1.50;99.90
27848;DHT22;15212;48.830;8.730;2022-12-07T04:56:51;1.40;99.90
27848;DHT22;15212;48.830;8.730;2022-12-07T04:59:20;1.40;99.90
27848;DHT22;15212;48.830;8.730;2022-12-07T05:01:48;1.40;99.90
27848;DHT22;15212;48.830;8.730;2022-12-07T05:04:17;1.40;99.90
27848;DHT22;15212;48.830;8.730;2022-12-07T05:06:45;1.40;99.90
27848;DHT22;15212;48.830;8.730;2022-12-07T05:09:13;1.40;99.90
27848;DHT22;15212;48.830;8.730;2022-12-07T05:11:42;1.40;99.90
27848;DHT22;15212;48.830;8.730;2022-12-07T05:14:19;1.40;99.90
27848;DHT22;15212;48.830;8.730;2022-12-07T05:16:50;1.40;99.90
27848;DHT22;15212;48.830;8.730;2022-12-07T05:19:20;1.40;99.90
27848;DHT22;15212;48.830;8.730;2022-12-07T05:21:48;1.40;99.90
27848;DHT22;15212;48.830;8.730;2022-12-07T05:24:17;1.40;99.90
27848;DHT22;15212;48.830;8.730;2022-12-07T05:26:45;1.40;99.90
27848;DHT22;15212;48.830;8.730;2022-12-07T05:29:16;1.40;99.90
27848;DHT22;15212;48.830;8.730;2022-12-07T05:31:45;1.30;99.90
27848;DHT22;15212;48.830;8.730;2022-12-07T05:34:14;1.30;99.90
27848;DHT22;15212;48.830;8.730;2022-12-07T05:36:42;1.30;99.90
27848;DHT22;15212;48.830;8.730;2022-12-07T05:39:11;1.40;99.90
27848;DHT22;15212;48.830;8.730;2022-12-07T05:41:39;1.40;99.90
27848;DHT22;15212;48.830;8.730;2022-12-07T05:44:25;1.40;99.90
27848;DHT22;15212;48.830;8.730;2022-12-07T05:46:54;1.40;99.90
27848;DHT22;15212;48.830;8.730;2022-12-07T05:49:22;1.40;99.90
27848;DHT22;15212;48.830;8.730;2022-12-07T05:51:50;1.50;99.90
27848;DHT22;15212;48.830;8.730;2022-12-07T05:54:19;1.50;99.90
27848;DHT22;15212;48.830;8.730;2022-12-07T05:56:47;1.50;99.90
27848;DHT22;15212;48.830;8.730;2022-12-07T05:59:16;1.50;99.90
27848;DHT22;15212;48.830;8.730;2022-12-07T06:02:03;1.50;99.90
27848;DHT22;15212;48.830;8.730;2022-12-07T06:04:35;1.50;99.90
27848;DHT22;15212;48.830;8.730;2022-12-07T06:07:05;1.50;99.90
27848;DHT22;15212;48.830;8.730;2022-12-07T06:09:34;1.50;99.90
27848;DHT22;15212;48.830;8.730;2022-12-07T06:12:04;1.50;99.90
27848;DHT22;15212;48.830;8.730;2022-12-07T06:14:51;1.50;99.90
27848;DHT22;15212;48.830;8.730;2022-12-07T06:17:19;1.50;99.90
27848;DHT22;15212;48.830;8.730;2022-12-07T06:19:47;1.50;99.90
27848;DHT22;15212;48.830;8.730;2022-12-07T06:22:16;1.50;99.90
27848;DHT22;15212;48.830;8.730;2022-12-07T06:24:45;1.60;99.90
27848;DHT22;15212;48.830;8.730;2022-12-07T06:27:13;1.60;99.90
27848;DHT22;15212;48.830;8.730;2022-12-07T06:29:42;1.60;99.90
27848;DHT22;15212;48.830;8.730;2022-12-07T06:32:10;1.60;99.90
27848;DHT22;15212;48.830;8.730;2022-12-07T06:34:39;1.60;99.90
27848;DHT22;15212;48.830;8.730;2022-12-07T06:37:07;1.60;99.90
27848;DHT22;15212;48.830;8.730;2022-12-07T06:39:35;1.60;99.90
27848;DHT22;15212;48.830;8.730;2022-12-07T06:42:05;1.60;99.90
27848;DHT22;15212;48.830;8.730;2022-12-07T06:44:33;1.60;99.90
27848;DHT22;15212;48.830;8.730;2022-12-07T06:47:02;1.70;99.90
27848;DHT22;15212;48.830;8.730;2022-12-07T06:49:31;1.70;99.90
27848;DHT22;15212;48.830;8.730;2022-12-07T06:51:59;1.70;99.90
27848;DHT22;15212;48.830;8.730;2022-12-07T06:54:28;1.70;99.90
27848;DHT22;15212;48.830;8.730;2022-12-07T06:56:56;1.70;99.90
27848;DHT22;15212;48.830;8.730;2022-12-07T06:59:25;1.70;99.90
27848;DHT22;15212;48.830;8.730;2022-12-07T07:01:53;1.70;99.90
27848;DHT22;15212;48.830;8.730;2022-12-07T07:04:22;1.70;99.90
27848;DHT22;15212;48.830;8.730;2022-12-07T07:06:51;1.70;99.90
27848;DHT22;15212;48.830;8.730;2022-12-07T07:09:19;1.70;99.90
27848;DHT22;15212;48.830;8.730;2022-12-07T07:11:48;1.70;99.90
27848;DHT22;15212;48.830;8.730;2022-12-07T07:14:16;1.70;99.90
27848;DHT22;15212;48.830;8.730;2022-12-07T07:16:46;1.70;99.90
27848;DHT22;15212;48.830;8.730;2022-12-07T07:19:14;1.70;99.90
27848;DHT22;15212;48.830;8.730;2022-12-07T07:21:42;1.70;99.90
27848;DHT22;15212;48.830;8.730;2022-12-07T07:24:11;1.80;99.90
27848;DHT22;15212;48.830;8.730;2022-12-07T07:26:39;1.80;99.90
27848;DHT22;15212;48.830;8.730;2022-12-07T07:29:07;1.80;99.90
27848;DHT22;15212;48.830;8.730;2022-12-07T07:31:36;1.90;99.90
27848;DHT22;15212;48.830;8.730;2022-12-07T07:34:04;1.90;99.90
27848;DHT22;15212;48.830;8.730;2022-12-07T07:36:32;1.90;99.90
27848;DHT22;15212;48.830;8.730;2022-12-07T07:39:01;1.90;99.90
27848;DHT22;15212;48.830;8.730;2022-12-07T07:41:29;1.90;99.90
27848;DHT22;15212;48.830;8.730;2022-12-07T07:43:58;1.90;99.90
27848;DHT22;15212;48.830;8.730;2022-12-07T07:46:26;1.90;99.90
27848;DHT22;15212;48.830;8.730;2022-12-07T07:48:55;1.90;99.90
27848;DHT22;15212;48.830;8.730;2022-12-07T07:51:23;1.90;99.90
27848;DHT22;15212;48.830;8.730;2022-12-07T07:54:11;2.00;99.90
27848;DHT22;15212;48.830;8.730;2022-12-07T07:56:39;2.00;99.90
27848;DHT22;15212;48.830;8.730;2022-12-07T07:59:08;2.00;99.90
27848;DHT22;15212;48.830;8.730;2022-12-07T08:01:36;2.00;99.90
27848;DHT22;15212;48.830;8.730;2022-12-07T08:04:04;2.00;99.90
27848;DHT22;15212;48.830;8.730;2022-12-07T08:06:33;2.10;99.90
27848;DHT22;15212;48.830;8.730;2022-12-07T08:09:02;2.10;99.90
27848;DHT22;15212;48.830;8.730;2022-12-07T08:11:32;2.10;99.90
27848;DHT22;15212;48.830;8.730;2022-12-07T08:14:00;2.10;99.90
27848;DHT22;15212;48.830;8.730;2022-12-07T08:16:29;2.20;99.90
27848;DHT22;15212;48.830;8.730;2022-12-07T08:18:58;2.20;99.90
27848;DHT22;15212;48.830;8.730;2022-12-07T08:21:26;2.30;99.90
27848;DHT22;15212;48.830;8.730;2022-12-07T08:23:54;2.30;99.90
27848;DHT22;15212;48.830;8.730;2022-12-07T08:26:24;2.30;99.90
27848;DHT22;15212;48.830;8.730;2022-12-07T08:28:53;2.30;99.90
27848;DHT22;15212;48.830;8.730;2022-12-07T08:31:21;2.30;99.90
27848;DHT22;15212;48.830;8.730;2022-12-07T08:33:50;2.30;99.90
27848;DHT22;15212;48.830;8.730;2022-12-07T08:36:18;2.30;99.90
27848;DHT22;15212;48.830;8.730;2022-12-07T08:38:48;2.40;99.90
27848;DHT22;15212;48.830;8.730;2022-12-07T08:41:17;2.40;99.90
27848;DHT22;15212;48.830;8.730;2022-12-07T08:43:45;2.40;99.90
27848;DHT22;15212;48.830;8.730;2022-12-07T08:46:23;2.50;99.90
27848;DHT22;15212;48.830;8.730;2022-12-07T08:49:03;2.50;99.90
27848;DHT22;15212;48.830;8.730;2022-12-07T08:51:40;2.50;99.90
27848;DHT22;15212;48.830;8.730;2022-12-07T08:54:13;2.60;99.90
27848;DHT22;15212;48.830;8.730;2022-12-07T08:56:43;2.60;99.90
27848;DHT22;15212;48.830;8.730;2022-12-07T08:59:14;2.60;99.90
27848;DHT22;15212;48.830;8.730;2022-12-07T09:01:43;2.70;99.90
27848;DHT22;15212;48.830;8.730;2022-12-07T09:04:11;2.70;99.90
27848;DHT22;15212;48.830;8.730;2022-12-07T09:06:41;2.70;99.90
27848;DHT22;15212;48.830;8.730;2022-12-07T09:09:11;2.70;99.90
27848;DHT22;15212;48.830;8.730;2022-12-07T09:11:40;2.70;99.90
27848;DHT22;15212;48.830;8.730;2022-12-07T09:14:08;2.70;99.90
27848;DHT22;15212;48.830;8.730;2022-12-07T09:16:37;2.70;99.90
27848;DHT22;15212;48.830;8.730;2022-12-07T09:19:07;2.70;99.90
27848;DHT22;15212;48.830;8.730;2022-12-07T09:21:36;2.70;99.90
27848;DHT22;15212;48.830;8.730;2022-12-07T09:24:04;2.70;99.90
27848;DHT22;15212;48.830;8.730;2022-12-07T09:26:33;2.70;99.90
27848;DHT22;15212;48.830;8.730;2022-12-07T09:29:02;2.70;99.90
27848;DHT22;15212;48.830;8.730;2022-12-07T09:31:31;2.80;99.90
27848;DHT22;15212;48.830;8.730;2022-12-07T09:34:00;2.80;99.90
27848;DHT22;15212;48.830;8.730;2022-12-07T09:36:29;2.80;99.90
27848;DHT22;15212;48.830;8.730;2022-12-07T09:38:58;2.80;99.90
27848;DHT22;15212;48.830;8.730;2022-12-07T09:41:27;2.80;99.90
27848;DHT22;15212;48.830;8.730;2022-12-07T09:44:03;2.80;99.90
27848;DHT22;15212;48.830;8.730;2022-12-07T09:46:38;2.80;99.90
27848;DHT22;15212;48.830;8.730;2022-12-07T09:49:14;2.80;99.90
27848;DHT22;15212;48.830;8.730;2022-12-07T09:51:44;2.80;99.90
27848;DHT22;15212;48.830;8.730;2022-12-07T09:54:15;2.80;99.90
27848;DHT22;15212;48.830;8.730;2022-12-07T09:56:44;2.80;99.90
27848;DHT22;15212;48.830;8.730;2022-12-07T09:59:17;2.80;99.90
27848;DHT22;15212;48.830;8.730;2022-12-07T10:01:49;2.90;99.90
27848;DHT22;15212;48.830;8.730;2022-12-07T10:04:22;2.80;99.90
27848;DHT22;15212;48.830;8.730;2022-12-07T10:06:52;2.90;99.90
27848;DHT22;15212;48.830;8.730;2022-12-07T10:09:21;2.90;99.90
27848;DHT22;15212;48.830;8.730;2022-12-07T10:12:03;3.00;99.90
27848;DHT22;15212;48.830;8.730;2022-12-07T10:14:35;3.00;99.90
27848;DHT22;15212;48.830;8.730;2022-12-07T10:17:29;3.00;99.90
27848;DHT22;15212;48.830;8.730;2022-12-07T10:22:57;3.30;99.90
27848;DHT22;15212;48.830;8.730;2022-12-07T10:25:33;3.40;99.90
27848;DHT22;15212;48.830;8.730;2022-12-07T10:28:12;3.50;99.90
27848;DHT22;15212;48.830;8.730;2022-12-07T10:31:35;3.60;99.90
27848;DHT22;15212;48.830;8.730;2022-12-07T10:33:38;3.60;99.90
27848;DHT22;15212;48.830;8.730;2022-12-07T10:36:23;3.70;99.90
27848;DHT22;15212;48.830;8.730;2022-12-07T10:39:18;3.70;99.90
27848;DHT22;15212;48.830;8.730;2022-12-07T10:42:02;3.60;99.90
27848;DHT22;15212;48.830;8.730;2022-12-07T10:44:34;3.60;99.90
27848;DHT22;15212;48.830;8.730;2022-12-07T10:47:20;3.50;99.90
27848;DHT22;15212;48.830;8.730;2022-12-07T10:56:27;3.50;99.90
27848;DHT22;15212;48.830;8.730;2022-12-07T10:59:30;3.50;99.90
27848;DHT22;15212;48.830;8.730;2022-12-07T11:02:29;3.30;99.90
27848;DHT22;15212;48.830;8.730;2022-12-07T11:08:05;3.20;99.90
27848;DHT22;15212;48.830;8.730;2022-12-07T11:11:06;3.20;99.90
27848;DHT22;15212;48.830;8.730;2022-12-07T11:13:49;3.10;99.90
27848;DHT22;15212;48.830;8.730;2022-12-07T11:20:24;3.20;99.90
27848;DHT22;15212;48.830;8.730;2022-12-07T11:23:21;3.30;99.90
27848;DHT22;15212;48.830;8.730;2022-12-07T11:32:59;3.30;99.90
27848;DHT22;15212;48.830;8.730;2022-12-07T11:35:37;3.30;99.90
27848;DHT22;15212;48.830;8.730;2022-12-07T11:38:37;3.30;99.90
27848;DHT22;15212;48.830;8.730;2022-12-07T11:41:15;3.30;99.90
27848;DHT22;15212;48.830;8.730;2022-12-07T11:43:54;3.30;99.90
27848;DHT22;15212;48.830;8.730;2022-12-07T11:46:44;3.20;99.90
27848;DHT22;15212;48.830;8.730;2022-12-07T11:49:40;3.20;99.90
27848;DHT22;15212;48.830;8.730;2022-12-07T11:52:18;3.20;99.90
27848;DHT22;15212;48.830;8.730;2022-12-07T11:54:50;3.20;99.90
27848;DHT22;15212;48.830;8.730;2022-12-07T11:57:37;3.20;99.90
27848;DHT22;15212;48.830;8.730;2022-12-07T12:00:13;3.20;99.90
27848;DHT22;15212;48.830;8.730;2022-12-07T12:02:51;3.20;99.90
27848;DHT22;15212;48.830;8.730;2022-12-07T12:05:25;3.10;99.90
27848;DHT22;15212;48.830;8.730;2022-12-07T12:07:53;3.10;99.90
27848;DHT22;15212;48.830;8.730;2022-12-07T12:10:37;3.10;99.90
27848;DHT22;15212;48.830;8.730;2022-12-07T12:25:47;3.40;99.90
27848;DHT22;15212;48.830;8.730;2022-12-07T12:31:13;3.40;99.90
27848;DHT22;15212;48.830;8.730;2022-12-07T12:33:53;3.30;99.90
27848;DHT22;15212;48.830;8.730;2022-12-07T12:39:15;3.30;99.90
27848;DHT22;15212;48.830;8.730;2022-12-07T12:47:01;3.20;99.90
27848;DHT22;15212;48.830;8.730;2022-12-07T12:49:41;3.20;99.90
27848;DHT22;15212;48.830;8.730;2022-12-07T12:57:39;3.20;99.90
27848;DHT22;15212;48.830;8.730;2022-12-07T13:00:19;3.20;99.90
27848;DHT22;15212;48.830;8.730;2022-12-07T13:02:53;3.30;99.90
27848;DHT22;15212;48.830;8.730;2022-12-07T13:05:24;3.20;99.90
27848;DHT22;15212;48.830;8.730;2022-12-07T13:07:56;3.20;99.90
27848;DHT22;15212;48.830;8.730;2022-12-07T13:10:35;3.20;99.90
27848;DHT22;15212;48.830;8.730;2022-12-07T13:15:50;3.20;99.90
27848;DHT22;15212;48.830;8.730;2022-12-07T13:26:41;3.00;99.90
27848;DHT22;15212;48.830;8.730;2022-12-07T13:29:18;3.00;99.90
27848;DHT22;15212;48.830;8.730;2022-12-07T13:31:57;3.00;99.90
27848;DHT22;15212;48.830;8.730;2022-12-07T13:34:31;3.00;99.90
27848;DHT22;15212;48.830;8.730;2022-12-07T13:37:30;2.90;99.90
27848;DHT22;15212;48.830;8.730;2022-12-07T13:39:57;2.90;99.90
27848;DHT22;15212;48.830;8.730;2022-12-07T13:42:30;2.90;99.90
27848;DHT22;15212;48.830;8.730;2022-12-07T13:45:16;2.90;99.90
27848;DHT22;15212;48.830;8.730;2022-12-07T13:47:56;3.00;99.90
27848;DHT22;15212;48.830;8.730;2022-12-07T13:50:28;3.00;99.90
27848;DHT22;15212;48.830;8.730;2022-12-07T13:52:59;3.00;99.90
27848;DHT22;15212;48.830;8.730;2022-12-07T13:55:29;3.00;99.90
27848;DHT22;15212;48.830;8.730;2022-12-07T13:57:58;2.90;99.90
27848;DHT22;15212;48.830;8.730;2022-12-07T14:00:29;2.90;99.90
27848;DHT22;15212;48.830;8.730;2022-12-07T14:03:00;2.90;99.90
27848;DHT22;15212;48.830;8.730;2022-12-07T14:05:32;2.90;99.90
27848;DHT22;15212;48.830;8.730;2022-12-07T14:18:47;2.90;99.90
27848;DHT22;15212;48.830;8.730;2022-12-07T14:21:17;2.90;99.90
27848;DHT22;15212;48.830;8.730;2022-12-07T14:24:10;2.90;99.90
27848;DHT22;15212;48.830;8.730;2022-12-07T14:26:40;2.80;99.90
27848;DHT22;15212;48.830;8.730;2022-12-07T14:29:31;2.80;99.90
27848;DHT22;15212;48.830;8.730;2022-12-07T14:32:18;2.80;99.90
27848;DHT22;15212;48.830;8.730;2022-12-07T14:35:11;2.70;99.90
27848;DHT22;15212;48.830;8.730;2022-12-07T14:37:40;2.70;99.90
27848;DHT22;15212;48.830;8.730;2022-12-07T14:40:19;2.50;99.90
27848;DHT22;15212;48.830;8.730;2022-12-07T14:42:54;2.50;99.90
27848;DHT22;15212;48.830;8.730;2022-12-07T14:45:24;2.50;99.90
27848;DHT22;15212;48.830;8.730;2022-12-07T14:47:53;2.40;99.90
27848;DHT22;15212;48.830;8.730;2022-12-07T14:50:22;2.40;99.90
27848;DHT22;15212;48.830;8.730;2022-12-07T14:52:58;2.40;99.90
27848;DHT22;15212;48.830;8.730;2022-12-07T14:55:28;2.40;99.90
27848;DHT22;15212;48.830;8.730;2022-12-07T14:57:58;2.30;99.90
27848;DHT22;15212;48.830;8.730;2022-12-07T15:00:28;2.30;99.90
27848;DHT22;15212;48.830;8.730;2022-12-07T15:02:57;2.40;99.90
27848;DHT22;15212;48.830;8.730;2022-12-07T15:05:25;2.40;99.90
27848;DHT22;15212;48.830;8.730;2022-12-07T15:07:54;2.40;99.90
27848;DHT22;15212;48.830;8.730;2022-12-07T15:10:25;2.30;99.90
27848;DHT22;15212;48.830;8.730;2022-12-07T15:13:00;2.30;99.90
27848;DHT22;15212;48.830;8.730;2022-12-07T15:15:49;2.40;99.90
27848;DHT22;15212;48.830;8.730;2022-12-07T15:18:19;2.30;99.90
27848;DHT22;15212;48.830;8.730;2022-12-07T15:20:48;2.30;99.90
27848;DHT22;15212;48.830;8.730;2022-12-07T15:23:18;2.30;99.90
27848;DHT22;15212;48.830;8.730;2022-12-07T15:25:48;2.40;99.90
27848;DHT22;15212;48.830;8.730;2022-12-07T15:28:16;2.30;99.90
27848;DHT22;15212;48.830;8.730;2022-12-07T15:30:45;2.30;99.90
27848;DHT22;15212;48.830;8.730;2022-12-07T15:33:14;2.30;99.90
27848;DHT22;15212;48.830;8.730;2022-12-07T15:35:43;2.30;99.90
27848;DHT22;15212;48.830;8.730;2022-12-07T15:38:12;2.30;99.90
27848;DHT22;15212;48.830;8.730;2022-12-07T15:40:41;2.30;99.90
27848;DHT22;15212;48.830;8.730;2022-12-07T15:43:12;2.40;99.90
27848;DHT22;15212;48.830;8.730;2022-12-07T15:45:58;2.40;99.90
27848;DHT22;15212;48.830;8.730;2022-12-07T15:48:26;2.40;99.90
27848;DHT22;15212;48.830;8.730;2022-12-07T15:51:07;2.40;99.90
27848;DHT22;15212;48.830;8.730;2022-12-07T15:53:34;2.40;99.90
27848;DHT22;15212;48.830;8.730;2022-12-07T15:56:07;2.40;99.90
27848;DHT22;15212;48.830;8.730;2022-12-07T15:58:36;2.40;99.90
27848;DHT22;15212;48.830;8.730;2022-12-07T16:01:13;2.30;99.90
27848;DHT22;15212;48.830;8.730;2022-12-07T16:03:44;2.30;99.90
27848;DHT22;15212;48.830;8.730;2022-12-07T16:06:17;2.20;99.90
27848;DHT22;15212;48.830;8.730;2022-12-07T16:08:46;2.20;99.90
27848;DHT22;15212;48.830;8.730;2022-12-07T16:11:15;2.20;99.90
27848;DHT22;15212;48.830;8.730;2022-12-07T16:13:43;2.20;99.90
27848;DHT22;15212;48.830;8.730;2022-12-07T16:16:14;2.10;99.90
27848;DHT22;15212;48.830;8.730;2022-12-07T16:18:45;2.10;99.90
27848;DHT22;15212;48.830;8.730;2022-12-07T16:21:14;2.10;99.90
27848;DHT22;15212;48.830;8.730;2022-12-07T16:23:43;2.10;99.90
27848;DHT22;15212;48.830;8.730;2022-12-07T16:26:17;2.10;99.90
27848;DHT22;15212;48.830;8.730;2022-12-07T16:28:49;2.10;99.90
27848;DHT22;15212;48.830;8.730;2022-12-07T16:31:20;2.10;99.90
27848;DHT22;15212;48.830;8.730;2022-12-07T16:33:52;2.10;99.90
27848;DHT22;15212;48.830;8.730;2022-12-07T16:36:21;2.10;99.90
27848;DHT22;15212;48.830;8.730;2022-12-07T16:38:52;2.00;99.90
27848;DHT22;15212;48.830;8.730;2022-12-07T16:41:20;2.00;99.90
27848;DHT22;15212;48.830;8.730;2022-12-07T16:43:49;2.00;99.90
27848;DHT22;15212;48.830;8.730;2022-12-07T16:46:18;2.00;99.90
27848;DHT22;15212;48.830;8.730;2022-12-07T16:48:46;2.00;99.90
27848;DHT22;15212;48.830;8.730;2022-12-07T16:51:15;2.00;99.90
27848;DHT22;15212;48.830;8.730;2022-12-07T16:53:44;2.00;99.90
27848;DHT22;15212;48.830;8.730;2022-12-07T16:56:15;2.10;99.90
27848;DHT22;15212;48.830;8.730;2022-12-07T16:58:44;2.10;99.90
27848;DHT22;15212;48.830;8.730;2022-12-07T17:01:17;2.10;99.90
27848;DHT22;15212;48.830;8.730;2022-12-07T17:03:48;2.10;99.90
27848;DHT22;15212;48.830;8.730;2022-12-07T17:06:19;2.20;99.90
27848;DHT22;15212;48.830;8.730;2022-12-07T17:08:50;2.20;99.90
27848;DHT22;15212;48.830;8.730;2022-12-07T17:11:24;2.20;99.90
27848;DHT22;15212;48.830;8.730;2022-12-07T17:13:54;2.20;99.90
27848;DHT22;15212;48.830;8.730;2022-12-07T17:16:40;2.20;99.90
27848;DHT22;15212;48.830;8.730;2022-12-07T17:19:11;2.20;99.90
27848;DHT22;15212;48.830;8.730;2022-12-07T17:21:42;2.20;99.90
27848;DHT22;15212;48.830;8.730;2022-12-07T17:24:13;2.20;99.90
27848;DHT22;15212;48.830;8.730;2022-12-07T17:26:44;2.20;99.90
27848;DHT22;15212;48.830;8.730;2022-12-07T17:29:16;2.20;99.90
27848;DHT22;15212;48.830;8.730;2022-12-07T17:31:46;2.20;99.90
27848;DHT22;15212;48.830;8.730;2022-12-07T17:34:15;2.20;99.90
27848;DHT22;15212;48.830;8.730;2022-12-07T17:36:44;2.20;99.90
27848;DHT22;15212;48.830;8.730;2022-12-07T17:39:16;2.20;99.90
27848;DHT22;15212;48.830;8.730;2022-12-07T17:41:45;2.20;99.90
27848;DHT22;15212;48.830;8.730;2022-12-07T17:44:31;2.10;99.90
27848;DHT22;15212;48.830;8.730;2022-12-07T17:46:59;2.10;99.90
27848;DHT22;15212;48.830;8.730;2022-12-07T17:49:29;2.00;99.90